createdAt,value
2019-04-03T00:01:27.694Z,10.60
2019-04-03T00:03:32.577Z,10.60
2019-04-03T00:05:37.075Z,10.60
2019-04-03T00:07:40.891Z,10.60
2019-04-03T00:09:44.768Z,10.50
2019-04-03T00:11:48.767Z,10.60
2019-04-03T00:13:53.466Z,10.50
2019-04-03T00:15:57.256Z,10.60
2019-04-03T00:18:01.090Z,10.50
2019-04-03T00:20:05.951Z,10.50
2019-04-03T00:22:09.811Z,10.50
2019-04-03T00:24:13.689Z,10.40
2019-04-03T00:26:17.589Z,10.50
2019-04-03T00:28:22.789Z,10.50
2019-04-03T00:30:26.856Z,10.50
2019-04-03T00:32:30.687Z,10.50
2019-04-03T00:34:34.442Z,10.40
2019-04-03T00:36:38.387Z,10.50
2019-04-03T00:38:42.262Z,10.40
2019-04-03T00:40:46.104Z,10.40
2019-04-03T00:42:50.040Z,10.40
2019-04-03T00:44:54.950Z,10.40
2019-04-03T00:46:58.819Z,10.30
2019-04-03T00:49:02.817Z,10.30
2019-04-03T00:51:06.704Z,10.20
2019-04-03T00:53:10.573Z,10.10
2019-04-03T00:55:14.527Z,10.10
2019-04-03T00:57:18.503Z,10.00
2019-04-03T00:59:22.752Z,9.90
2019-04-03T01:01:27.008Z,9.80
2019-04-03T01:03:30.821Z,9.70
2019-04-03T01:05:34.570Z,9.70
2019-04-03T01:07:38.410Z,9.70
2019-04-03T01:09:42.311Z,9.60
2019-04-03T01:11:46.237Z,9.60
2019-04-03T01:14:09.285Z,9.50
2019-04-03T01:16:13.266Z,9.50
2019-04-03T01:18:17.144Z,9.40
2019-04-03T01:20:21.722Z,9.40
2019-04-03T01:22:25.778Z,9.40
2019-04-03T01:24:29.582Z,9.40
2019-04-03T01:26:33.378Z,9.40
2019-04-03T01:28:37.378Z,9.40
2019-04-03T01:30:42.566Z,9.40
2019-04-03T01:32:47.137Z,9.30
2019-04-03T01:34:51.184Z,9.30
2019-04-03T01:36:56.223Z,9.30
2019-04-03T01:39:00.139Z,9.30
2019-04-03T01:41:04.095Z,9.30
2019-04-03T01:43:07.888Z,9.40
2019-04-03T01:45:12.316Z,9.50
2019-04-03T01:47:16.184Z,9.50
2019-04-03T01:49:19.956Z,9.60
2019-04-03T01:51:24.458Z,9.60
2019-04-03T01:53:28.292Z,9.70
2019-04-03T01:55:33.995Z,9.80
2019-04-03T01:57:37.676Z,9.80
2019-04-03T01:59:41.516Z,9.80
2019-04-03T02:01:45.315Z,9.80
2019-04-03T02:03:49.579Z,9.80
2019-04-03T02:05:54.285Z,9.70
2019-04-03T02:07:58.099Z,9.60
2019-04-03T02:10:01.970Z,9.60
2019-04-03T02:12:05.832Z,9.60
2019-04-03T02:14:09.615Z,9.60
2019-04-03T02:16:13.601Z,9.60
2019-04-03T02:18:18.044Z,9.60
2019-04-03T02:20:22.422Z,9.60
2019-04-03T02:22:27.579Z,9.50
2019-04-03T02:24:32.234Z,9.40
2019-04-03T02:26:36.063Z,9.30
2019-04-03T02:28:39.871Z,9.30
2019-04-03T02:30:46.055Z,9.20
2019-04-03T02:32:49.567Z,9.30
2019-04-03T02:34:54.082Z,9.30
2019-04-03T02:36:57.925Z,9.30
2019-04-03T02:39:01.753Z,9.30
2019-04-03T02:41:06.055Z,9.30
2019-04-03T02:43:13.488Z,9.30
2019-04-03T02:45:15.835Z,9.30
2019-04-03T02:47:38.971Z,9.20
2019-04-03T02:49:43.684Z,9.20
2019-04-03T02:51:51.733Z,9.20
2019-04-03T02:53:55.008Z,9.30
2019-04-03T02:55:58.893Z,9.30
2019-04-03T02:58:02.821Z,9.30
2019-04-03T03:00:07.824Z,9.30
2019-04-03T03:02:12.905Z,9.30
2019-04-03T03:04:20.230Z,9.30
2019-04-03T03:06:24.194Z,9.30
2019-04-03T03:08:28.169Z,9.20
2019-04-03T03:10:33.195Z,9.20
2019-04-03T03:12:39.272Z,9.20
2019-04-03T03:14:43.319Z,9.10
2019-04-03T03:16:49.739Z,9.10
2019-04-03T03:18:54.239Z,9.10
2019-04-03T03:20:58.775Z,9.10
2019-04-03T03:23:03.077Z,9.00
2019-04-03T03:25:07.472Z,9.00
2019-04-03T03:27:11.832Z,9.10
2019-04-03T03:29:19.209Z,9.10
2019-04-03T03:31:44.621Z,9.20
2019-04-03T03:33:35.495Z,9.10
2019-04-03T03:35:40.151Z,9.00
2019-04-03T03:37:40.454Z,9.00
2019-04-03T03:39:45.859Z,8.90
2019-04-03T03:41:50.158Z,8.90
2019-04-03T03:43:55.427Z,8.90
2019-04-03T03:45:59.922Z,8.90
2019-04-03T03:48:08.508Z,8.80
2019-04-03T03:50:10.680Z,8.70
2019-04-03T03:52:16.470Z,8.60
2019-04-03T03:54:20.652Z,8.50
2019-04-03T03:56:25.310Z,8.50
2019-04-03T03:58:29.606Z,8.40
2019-04-03T04:00:33.734Z,8.40
2019-04-03T04:02:39.579Z,8.30
2019-04-03T04:04:46.584Z,8.30
2019-04-03T04:06:50.042Z,8.30
2019-04-03T04:08:54.808Z,8.30
2019-04-03T04:10:59.938Z,8.20
2019-04-03T04:13:04.661Z,8.20
2019-04-03T04:15:08.709Z,8.20
2019-04-03T04:17:16.853Z,8.20
2019-04-03T04:19:19.586Z,8.30
2019-04-03T04:21:24.648Z,8.30
2019-04-03T04:23:28.672Z,8.30
2019-04-03T04:25:32.624Z,8.30
2019-04-03T04:27:38.825Z,8.40
2019-04-03T04:29:43.300Z,8.40
2019-04-03T04:31:47.238Z,8.40
2019-04-03T04:33:51.192Z,8.40
2019-04-03T04:35:55.843Z,8.40
2019-04-03T04:37:59.747Z,8.40
2019-04-03T04:40:03.838Z,8.40
2019-04-03T04:42:10.066Z,8.40
2019-04-03T04:44:15.068Z,8.50
2019-04-03T04:46:19.243Z,8.60
2019-04-03T04:48:23.407Z,8.70
2019-04-03T04:50:27.464Z,8.70
2019-04-03T04:52:31.340Z,8.70
2019-04-03T04:54:35.123Z,8.80
2019-04-03T04:56:38.930Z,8.70
2019-04-03T04:58:43.682Z,8.70
2019-04-03T05:00:47.902Z,8.70
2019-04-03T05:02:51.877Z,8.70
2019-04-03T05:04:56.828Z,8.70
2019-04-03T05:07:00.690Z,8.60
2019-04-03T05:09:06.714Z,8.70
2019-04-03T05:11:10.820Z,8.60
2019-04-03T05:13:16.208Z,8.60
2019-04-03T05:15:23.268Z,8.70
2019-04-03T05:17:27.366Z,8.70
2019-04-03T05:19:31.418Z,8.60
2019-04-03T05:21:36.243Z,8.60
2019-04-03T05:23:40.072Z,8.60
2019-04-03T05:25:44.478Z,8.50
2019-04-03T05:27:48.383Z,8.50
2019-04-03T05:29:52.181Z,8.60
2019-04-03T05:31:57.000Z,8.60
2019-04-03T05:34:00.750Z,8.60
2019-04-03T05:36:04.691Z,8.70
2019-04-03T05:38:08.574Z,8.60
2019-04-03T05:40:12.476Z,8.60
2019-04-03T05:42:16.248Z,8.70
2019-04-03T05:44:23.073Z,8.70
2019-04-03T05:46:26.437Z,8.70
2019-04-03T05:48:30.260Z,8.80
2019-04-03T05:50:36.657Z,8.80
2019-04-03T05:52:40.445Z,8.80
2019-04-03T05:54:44.746Z,8.90
2019-04-03T05:56:51.326Z,8.90
2019-04-03T05:58:57.201Z,8.80
2019-04-03T06:01:05.437Z,8.90
2019-04-03T06:03:06.467Z,8.90
2019-04-03T06:05:12.705Z,8.80
2019-04-03T06:07:18.223Z,8.80
2019-04-03T06:09:22.351Z,8.80
2019-04-03T06:11:31.094Z,8.80
2019-04-03T06:13:34.849Z,8.80
2019-04-03T06:15:38.638Z,8.80
2019-04-03T06:17:42.503Z,8.80
2019-04-03T06:19:46.379Z,8.80
2019-04-03T06:21:50.527Z,8.80
2019-04-03T06:23:55.424Z,8.80
2019-04-03T06:26:02.125Z,8.80
2019-04-03T06:28:05.003Z,8.80
2019-04-03T06:30:10.439Z,8.80
2019-04-03T06:32:14.400Z,8.80
2019-04-03T06:34:18.192Z,8.80
2019-04-03T06:36:22.115Z,8.80
2019-04-03T06:38:26.623Z,8.80
2019-04-03T06:40:30.423Z,8.80
2019-04-03T06:42:34.391Z,8.80
2019-04-03T06:44:38.333Z,8.80
2019-04-03T06:46:42.296Z,8.80
2019-04-03T06:48:46.108Z,9.00
2019-04-03T06:50:50.320Z,9.00
2019-04-03T06:52:55.450Z,9.20
2019-04-03T06:54:59.525Z,9.10
2019-04-03T06:57:03.323Z,8.90
2019-04-03T06:59:07.149Z,8.70
2019-04-03T07:01:11.019Z,8.40
2019-04-03T07:03:14.860Z,8.10
2019-04-03T07:05:18.702Z,7.90
2019-04-03T07:07:32.928Z,7.80
2019-04-03T07:09:35.006Z,7.60
2019-04-03T07:11:34.090Z,7.50
2019-04-03T07:13:37.874Z,7.30
2019-04-03T07:15:42.048Z,7.20
2019-04-03T07:17:45.855Z,7.10
2019-04-03T07:19:49.720Z,7.00
2019-04-03T07:21:55.198Z,6.90
2019-04-03T07:24:00.655Z,6.70
2019-04-03T07:26:05.566Z,6.60
2019-04-03T07:28:09.537Z,6.60
2019-04-03T07:30:16.539Z,6.60
2019-04-03T07:32:19.306Z,6.60
2019-04-03T07:34:23.173Z,6.60
2019-04-03T07:36:27.840Z,6.60
2019-04-03T07:38:31.638Z,6.60
2019-04-03T07:40:35.514Z,6.60
2019-04-03T07:42:39.449Z,6.60
2019-04-03T07:44:43.363Z,6.50
2019-04-03T07:46:47.258Z,6.50
2019-04-03T07:48:51.188Z,6.50
2019-04-03T07:50:56.519Z,6.40
2019-04-03T07:53:00.456Z,6.40
2019-04-03T07:55:05.833Z,6.40
2019-04-03T07:57:10.588Z,6.50
2019-04-03T07:59:14.955Z,6.40
2019-04-03T08:01:18.942Z,6.40
2019-04-03T08:03:23.214Z,6.40
2019-04-03T08:05:30.946Z,6.40
2019-04-03T08:07:34.346Z,6.40
2019-04-03T08:09:38.179Z,6.50
2019-04-03T08:11:42.128Z,6.50
2019-04-03T08:13:45.959Z,6.50
2019-04-03T08:15:49.977Z,6.50
2019-04-03T08:17:56.804Z,6.50
2019-04-03T08:19:59.466Z,6.50
2019-04-03T08:22:03.333Z,6.50
2019-04-03T08:24:08.165Z,6.50
2019-04-03T08:26:12.755Z,6.50
2019-04-03T08:28:17.072Z,6.50
2019-04-03T08:30:21.296Z,6.50
2019-04-03T08:32:25.767Z,6.60
2019-04-03T08:34:31.984Z,6.60
2019-04-03T08:36:38.402Z,6.70
2019-04-03T08:38:41.112Z,6.70
2019-04-03T08:40:46.927Z,6.70
2019-04-03T08:42:50.875Z,6.70
2019-04-03T08:44:54.775Z,6.70
2019-04-03T08:47:00.051Z,6.70
2019-04-03T08:49:03.940Z,6.60
2019-04-03T08:51:07.765Z,6.50
2019-04-03T08:53:11.968Z,6.50
2019-04-03T08:55:15.967Z,6.50
2019-04-03T08:57:20.539Z,6.60
2019-04-03T08:59:24.925Z,6.50
2019-04-03T09:01:29.267Z,6.50
2019-04-03T09:03:33.089Z,6.40
2019-04-03T09:05:37.263Z,6.30
2019-04-03T09:07:41.761Z,6.30
2019-04-03T09:09:46.442Z,6.30
2019-04-03T09:11:50.497Z,6.40
2019-04-03T09:13:54.821Z,6.40
2019-04-03T09:16:01.559Z,6.40
2019-04-03T09:18:06.748Z,6.30
2019-04-03T09:20:13.495Z,6.50
2019-04-03T09:22:17.125Z,6.40
2019-04-03T09:24:40.403Z,6.40
2019-04-03T09:26:45.289Z,6.60
2019-04-03T09:28:49.692Z,6.70
2019-04-03T09:30:54.152Z,7.00
2019-04-03T09:32:59.917Z,7.00
2019-04-03T09:35:05.397Z,7.00
2019-04-03T09:37:09.350Z,7.00
2019-04-03T09:39:14.617Z,7.20
2019-04-03T09:41:20.052Z,7.20
2019-04-03T09:43:24.132Z,7.40
2019-04-03T09:45:29.371Z,7.60
2019-04-03T09:47:34.787Z,7.80
2019-04-03T09:49:42.304Z,7.90
2019-04-03T09:51:44.597Z,8.00
2019-04-03T09:53:48.399Z,8.10
2019-04-03T09:55:52.457Z,8.20
2019-04-03T09:57:57.639Z,8.30
2019-04-03T10:00:01.680Z,8.10
2019-04-03T10:02:05.633Z,8.10
2019-04-03T10:04:09.559Z,8.10
2019-04-03T10:06:13.423Z,8.10
2019-04-03T10:08:17.297Z,8.20
2019-04-03T10:10:21.444Z,8.30
2019-04-03T10:12:25.869Z,8.40
2019-04-03T10:14:29.942Z,8.40
2019-04-03T10:16:35.568Z,8.50
2019-04-03T10:18:41.794Z,8.70
2019-04-03T10:20:45.573Z,8.70
2019-04-03T10:22:51.111Z,8.70
2019-04-03T10:24:55.641Z,8.70
2019-04-03T10:27:00.562Z,8.70
2019-04-03T10:29:04.881Z,8.60
2019-04-03T10:31:08.730Z,8.50
2019-04-03T10:33:12.615Z,8.50
2019-04-03T10:35:17.068Z,8.70
2019-04-03T10:37:21.130Z,8.70
2019-04-03T10:39:25.516Z,8.50
2019-04-03T10:41:30.042Z,8.50
2019-04-03T10:43:36.643Z,8.30
2019-04-03T10:45:39.616Z,8.30
2019-04-03T10:47:44.717Z,8.50
2019-04-03T10:49:48.946Z,8.80
2019-04-03T10:51:52.952Z,9.00
2019-04-03T10:53:58.017Z,9.30
2019-04-03T10:56:01.895Z,10.20
2019-04-03T10:58:07.290Z,10.70
2019-04-03T11:00:13.375Z,10.90
2019-04-03T11:02:17.387Z,11.00
2019-04-03T11:04:21.339Z,11.20
2019-04-03T11:06:25.243Z,11.00
2019-04-03T11:08:30.250Z,11.10
2019-04-03T11:10:34.264Z,11.30
2019-04-03T11:12:38.135Z,11.50
2019-04-03T11:14:42.015Z,11.00
2019-04-03T11:16:46.508Z,10.40
2019-04-03T11:18:58.494Z,10.10
2019-04-03T11:20:57.417Z,9.60
2019-04-03T11:23:06.333Z,9.40
2019-04-03T11:25:08.030Z,9.10
2019-04-03T11:27:12.334Z,8.90
2019-04-03T11:29:17.139Z,9.10
2019-04-03T11:31:27.116Z,8.90
2019-04-03T11:33:27.587Z,8.90
2019-04-03T11:35:31.548Z,8.80
2019-04-03T11:37:35.462Z,8.90
2019-04-03T11:39:39.503Z,9.10
2019-04-03T11:41:43.548Z,9.20
2019-04-03T11:43:47.508Z,9.40
2019-04-03T11:45:51.337Z,9.50
2019-04-03T11:47:55.569Z,9.30
2019-04-03T11:50:00.206Z,9.10
2019-04-03T11:52:04.080Z,8.90
2019-04-03T11:54:11.751Z,8.70
2019-04-03T11:56:16.512Z,8.50
2019-04-03T11:58:24.459Z,8.40
2019-04-03T12:00:35.976Z,8.40
2019-04-03T12:02:43.466Z,8.50
2019-04-03T12:04:45.770Z,8.40
2019-04-03T12:06:51.816Z,8.50
2019-04-03T12:08:55.648Z,8.60
2019-04-03T12:10:59.801Z,8.60
2019-04-03T12:13:04.646Z,8.70
2019-04-03T12:15:09.100Z,8.90
2019-04-03T12:17:12.986Z,9.00
2019-04-03T12:19:17.106Z,9.00
2019-04-03T12:21:21.266Z,9.00
2019-04-03T12:23:26.795Z,8.90
2019-04-03T12:25:33.572Z,8.80
2019-04-03T12:27:36.802Z,8.90
2019-04-03T12:29:41.045Z,9.10
2019-04-03T12:31:45.104Z,9.30
2019-04-03T12:33:56.334Z,9.50
2019-04-03T12:35:54.756Z,9.70
2019-04-03T12:37:59.644Z,9.90
2019-04-03T12:40:03.870Z,9.90
2019-04-03T12:42:08.745Z,10.00
2019-04-03T12:44:13.438Z,10.10
2019-04-03T12:46:19.007Z,10.30
2019-04-03T12:48:22.833Z,10.30
2019-04-03T12:50:27.553Z,10.40
2019-04-03T12:52:32.002Z,10.60
2019-04-03T12:54:35.808Z,10.90
2019-04-03T12:56:39.602Z,11.20
2019-04-03T12:58:43.500Z,11.50
2019-04-03T13:00:47.380Z,11.50
2019-04-03T13:02:52.416Z,11.10
2019-04-03T13:04:56.969Z,10.80
2019-04-03T13:07:04.982Z,10.90
2019-04-03T13:09:10.701Z,10.70
2019-04-03T13:11:14.640Z,10.50
2019-04-03T13:13:18.464Z,10.50
2019-04-03T13:15:22.432Z,10.40
2019-04-03T13:17:26.815Z,10.30
2019-04-03T13:19:31.160Z,10.10
2019-04-03T13:21:35.075Z,10.10
2019-04-03T13:23:38.876Z,10.20
2019-04-03T13:25:42.692Z,10.40
2019-04-03T13:27:46.511Z,10.50
2019-04-03T13:29:50.315Z,10.70
2019-04-03T13:31:55.390Z,10.70
2019-04-03T13:33:59.564Z,10.80
2019-04-03T13:36:04.105Z,11.00
2019-04-03T13:38:08.445Z,10.90
2019-04-03T13:40:12.930Z,11.00
2019-04-03T13:42:16.747Z,11.00
2019-04-03T13:44:20.599Z,10.90
2019-04-03T13:46:24.536Z,10.80
2019-04-03T13:48:28.760Z,10.70
2019-04-03T13:50:32.712Z,10.50
2019-04-03T13:52:41.417Z,10.40
2019-04-03T13:54:45.210Z,10.40
2019-04-03T13:56:48.152Z,10.40
2019-04-03T13:58:53.626Z,10.40
2019-04-03T14:01:02.135Z,10.40
2019-04-03T14:03:03.833Z,10.30
2019-04-03T14:05:08.784Z,10.10
2019-04-03T14:07:12.632Z,9.80
2019-04-03T14:09:17.563Z,10.10
2019-04-03T14:11:21.556Z,10.20
2019-04-03T14:13:25.723Z,10.10
2019-04-03T14:15:30.418Z,9.40
2019-04-03T14:17:36.280Z,9.50
2019-04-03T14:19:44.371Z,9.60
2019-04-03T14:21:45.435Z,9.70
2019-04-03T14:23:49.706Z,9.80
2019-04-03T14:26:04.698Z,9.80
2019-04-03T14:28:02.796Z,9.90
2019-04-03T14:30:10.233Z,9.70
2019-04-03T14:32:14.579Z,9.70
2019-04-03T14:34:18.734Z,9.90
2019-04-03T14:36:22.524Z,10.10
2019-04-03T14:38:28.590Z,10.10
2019-04-03T14:40:32.401Z,9.80
2019-04-03T14:42:36.360Z,9.70
2019-04-03T14:44:41.547Z,9.80
2019-04-03T14:46:45.798Z,9.70
2019-04-03T14:48:49.646Z,9.60
2019-04-03T14:50:53.535Z,9.60
2019-04-03T14:52:58.190Z,9.60
2019-04-03T14:55:16.577Z,9.40
2019-04-03T14:57:17.711Z,9.10
2019-04-03T14:59:14.481Z,8.90
2019-04-03T15:01:19.844Z,8.80
2019-04-03T15:03:25.909Z,8.80
2019-04-03T15:05:31.945Z,8.70
2019-04-03T15:07:36.390Z,8.70
2019-04-03T15:09:40.367Z,8.70
2019-04-03T15:11:44.322Z,8.80
2019-04-03T15:13:49.821Z,8.70
2019-04-03T15:15:54.575Z,8.70
2019-04-03T15:18:00.025Z,8.70
2019-04-03T15:20:06.258Z,8.70
2019-04-03T15:22:10.156Z,8.70
2019-04-03T15:24:14.266Z,8.60
2019-04-03T15:26:37.507Z,8.50
2019-04-03T15:28:41.410Z,8.50
2019-04-03T15:30:45.769Z,8.50
2019-04-03T15:32:51.874Z,8.50
2019-04-03T15:34:57.202Z,8.50
2019-04-03T15:37:02.276Z,8.40
2019-04-03T15:39:11.946Z,8.30
2019-04-03T15:41:16.196Z,8.30
2019-04-03T15:43:20.082Z,8.20
2019-04-03T15:45:25.333Z,8.20
2019-04-03T15:47:37.039Z,8.20
2019-04-03T15:49:35.657Z,8.10
2019-04-03T15:51:40.038Z,8.00
2019-04-03T15:53:44.773Z,8.00
2019-04-03T15:55:48.966Z,8.00
2019-04-03T15:57:53.856Z,8.00
2019-04-03T15:59:58.060Z,8.10
2019-04-03T16:02:02.152Z,8.20
2019-04-03T16:04:06.903Z,8.10
2019-04-03T16:06:11.094Z,8.00
2019-04-03T16:08:15.176Z,7.70
2019-04-03T16:10:21.760Z,7.50
2019-04-03T16:12:24.819Z,7.20
2019-04-03T16:14:29.318Z,7.00
2019-04-03T16:16:33.812Z,6.90
2019-04-03T16:18:38.532Z,6.90
2019-04-03T16:20:42.911Z,6.80
2019-04-03T16:22:47.069Z,6.80
2019-04-03T16:24:53.198Z,6.80
2019-04-03T16:26:57.568Z,6.80
2019-04-03T16:29:03.881Z,6.80
2019-04-03T16:31:07.795Z,6.80
2019-04-03T16:33:19.917Z,6.80
2019-04-03T16:35:19.016Z,6.80
2019-04-03T16:37:23.339Z,6.70
2019-04-03T16:39:27.229Z,6.70
2019-04-03T16:41:32.431Z,6.70
2019-04-03T16:43:36.338Z,6.60
2019-04-03T16:45:40.272Z,6.70
2019-04-03T16:47:45.193Z,6.70
2019-04-03T16:49:49.705Z,6.70
2019-04-03T16:51:53.752Z,6.70
2019-04-03T16:54:00.007Z,6.70
2019-04-03T16:56:05.879Z,6.70
2019-04-03T16:58:09.045Z,6.60
2019-04-03T17:00:13.640Z,6.60
2019-04-03T17:02:19.187Z,6.60
2019-04-03T17:04:27.190Z,6.50
2019-04-03T17:06:30.001Z,6.50
2019-04-03T17:08:34.135Z,6.60
2019-04-03T17:10:57.243Z,6.50
2019-04-03T17:13:02.980Z,6.50
2019-04-03T17:15:07.739Z,6.50
2019-04-03T17:17:14.061Z,6.40
2019-04-03T17:19:17.568Z,6.30
2019-04-03T17:21:41.237Z,6.30
2019-04-03T17:23:46.168Z,6.30
2019-04-03T17:25:51.718Z,6.20
2019-04-03T17:27:58.116Z,6.10
2019-04-03T17:30:03.096Z,6.00
2019-04-03T17:32:08.207Z,6.00
2019-04-03T17:34:13.609Z,6.00
2019-04-03T17:36:19.781Z,6.00
2019-04-03T17:38:23.023Z,6.00
2019-04-03T17:40:27.073Z,6.10
2019-04-03T17:42:31.851Z,6.10
2019-04-03T17:44:38.207Z,6.10
2019-04-03T17:46:41.278Z,6.10
2019-04-03T17:48:45.058Z,6.10
2019-04-03T17:50:48.876Z,6.10
2019-04-03T17:52:53.022Z,6.10
2019-04-03T17:54:56.808Z,6.10
2019-04-03T17:57:01.240Z,6.10
2019-04-03T17:59:05.195Z,6.00
2019-04-03T18:01:09.183Z,6.00
2019-04-03T18:03:13.028Z,6.10
2019-04-03T18:05:17.071Z,6.00
2019-04-03T18:07:20.895Z,6.00
2019-04-03T18:09:24.795Z,5.90
2019-04-03T18:11:28.850Z,5.90
2019-04-03T18:13:33.663Z,5.80
2019-04-03T18:15:37.554Z,5.90
2019-04-03T18:17:41.532Z,5.90
2019-04-03T18:19:45.399Z,5.90
2019-04-03T18:21:49.492Z,5.90
2019-04-03T18:23:53.495Z,5.90
2019-04-03T18:25:57.831Z,6.00
2019-04-03T18:28:05.446Z,6.00
2019-04-03T18:30:11.852Z,6.00
2019-04-03T18:32:15.979Z,6.00
2019-04-03T18:34:20.350Z,6.00
2019-04-03T18:36:27.253Z,5.90
2019-04-03T18:38:31.220Z,5.90
2019-04-03T18:40:35.136Z,5.90
2019-04-03T18:42:39.057Z,5.90
2019-04-03T18:44:42.840Z,5.90
2019-04-03T18:46:46.738Z,5.90
2019-04-03T18:48:54.593Z,5.90
2019-04-03T18:50:56.167Z,5.90
2019-04-03T18:53:00.590Z,6.00
2019-04-03T18:55:05.417Z,6.00
2019-04-03T18:57:09.279Z,5.90
2019-04-03T18:59:15.316Z,6.00
2019-04-03T19:01:18.655Z,5.90
2019-04-03T19:03:22.480Z,5.90
2019-04-03T19:05:26.452Z,6.00
2019-04-03T19:07:30.790Z,6.00
2019-04-03T19:09:35.070Z,6.00
2019-04-03T19:11:40.596Z,6.10
2019-04-03T19:13:45.158Z,6.00
2019-04-03T19:15:49.980Z,6.00
2019-04-03T19:17:59.944Z,6.00
2019-04-03T19:20:10.241Z,6.00
2019-04-03T19:22:05.409Z,6.00
2019-04-03T19:24:09.287Z,6.00
2019-04-03T19:26:13.290Z,6.00
2019-04-03T19:28:17.174Z,5.90
2019-04-03T19:30:21.135Z,5.90
2019-04-03T19:32:24.995Z,5.80
2019-04-03T19:34:29.068Z,5.80
2019-04-03T19:36:34.139Z,5.80
2019-04-03T19:38:37.989Z,5.90
2019-04-03T19:40:41.825Z,5.90
2019-04-03T19:42:48.684Z,5.90
2019-04-03T19:44:51.362Z,5.80
2019-04-03T19:46:55.196Z,5.70
2019-04-03T19:48:58.991Z,5.70
2019-04-03T19:51:04.522Z,5.70
2019-04-03T19:53:08.467Z,6.00
2019-04-03T19:55:12.419Z,5.70
2019-04-03T19:57:16.223Z,5.60
2019-04-03T19:59:20.036Z,5.60
2019-04-03T20:01:24.102Z,5.60
2019-04-03T20:03:28.379Z,5.70
2019-04-03T20:05:33.159Z,5.60
2019-04-03T20:07:36.991Z,5.60
2019-04-03T20:09:40.958Z,5.60
2019-04-03T20:11:44.854Z,5.60
2019-04-03T20:13:48.743Z,5.60
2019-04-03T20:15:54.468Z,5.60
2019-04-03T20:17:58.288Z,5.60
2019-04-03T20:20:06.001Z,5.60
2019-04-03T20:22:29.067Z,5.60
2019-04-03T20:24:34.006Z,5.60
2019-04-03T20:26:37.802Z,5.60
2019-04-03T20:28:41.622Z,5.50
2019-04-03T20:30:45.485Z,5.50
2019-04-03T20:32:49.279Z,5.50
2019-04-03T20:34:53.506Z,5.40
2019-04-03T20:36:57.344Z,5.40
2019-04-03T20:39:04.219Z,5.40
2019-04-03T20:41:07.547Z,5.40
2019-04-03T20:43:12.021Z,5.40
2019-04-03T20:45:17.157Z,5.40
2019-04-03T20:47:21.547Z,5.40
2019-04-03T20:49:25.370Z,5.40
2019-04-03T20:51:29.159Z,5.40
2019-04-03T20:53:33.825Z,5.40
2019-04-03T20:55:37.622Z,5.40
2019-04-03T20:57:54.522Z,5.40
2019-04-03T20:59:58.536Z,5.40
2019-04-03T21:01:52.686Z,5.40
2019-04-03T21:03:56.502Z,5.40
2019-04-03T21:06:00.548Z,5.40
2019-04-03T21:08:05.134Z,5.40
2019-04-03T21:10:09.423Z,5.40
2019-04-03T21:12:13.628Z,5.30
2019-04-03T21:14:17.419Z,5.30
2019-04-03T21:16:32.811Z,5.40
2019-04-03T21:18:26.842Z,5.30
2019-04-03T21:20:31.079Z,5.30
2019-04-03T21:22:35.127Z,5.30
2019-04-03T21:24:39.042Z,5.30
2019-04-03T21:26:42.927Z,5.30
2019-04-03T21:28:46.837Z,5.30
2019-04-03T21:30:54.637Z,5.30
2019-04-03T21:32:57.968Z,5.30
2019-04-03T21:35:05.684Z,5.20
2019-04-03T21:37:13.977Z,5.20
2019-04-03T21:39:17.412Z,5.20
2019-04-03T21:41:21.373Z,5.20
2019-04-03T21:43:25.293Z,5.20
2019-04-03T21:45:29.083Z,5.20
2019-04-03T21:47:33.678Z,5.20
2019-04-03T21:49:37.747Z,5.20
2019-04-03T21:51:41.550Z,5.20
2019-04-03T21:53:45.432Z,5.20
2019-04-03T21:55:49.248Z,5.20
2019-04-03T21:57:53.027Z,5.20
2019-04-03T21:59:56.817Z,5.30
2019-04-03T22:02:00.776Z,5.20
2019-04-03T22:04:05.315Z,5.20
2019-04-03T22:06:09.247Z,5.20
2019-04-03T22:08:13.079Z,5.10
2019-04-03T22:10:17.150Z,5.10
2019-04-03T22:12:20.978Z,5.00
2019-04-03T22:14:24.881Z,5.00
2019-04-03T22:16:28.714Z,5.00
2019-04-03T22:18:33.014Z,5.00
2019-04-03T22:20:36.920Z,5.00
2019-04-03T22:22:40.709Z,5.00
2019-04-03T22:24:44.595Z,5.00
2019-04-03T22:26:48.598Z,5.00
2019-04-03T22:28:52.439Z,5.00
2019-04-03T22:30:56.361Z,5.10
2019-04-03T22:33:00.290Z,5.10
2019-04-03T22:35:05.896Z,5.10
2019-04-03T22:37:10.150Z,5.10
2019-04-03T22:39:14.367Z,5.10
2019-04-03T22:41:18.114Z,5.10
2019-04-03T22:43:21.895Z,5.10
2019-04-03T22:45:25.742Z,5.10
2019-04-03T22:47:29.599Z,5.10
2019-04-03T22:49:34.548Z,5.10
2019-04-03T22:51:39.235Z,5.10
2019-04-03T22:53:43.088Z,5.10
2019-04-03T22:55:47.076Z,5.10
2019-04-03T22:57:51.158Z,5.00
2019-04-03T22:59:55.326Z,5.00
2019-04-03T23:02:01.424Z,5.00
2019-04-03T23:04:05.912Z,5.10
2019-04-03T23:06:09.808Z,5.10
2019-04-03T23:08:13.739Z,5.10
2019-04-03T23:10:17.507Z,5.10
2019-04-03T23:12:21.410Z,5.00
2019-04-03T23:14:25.269Z,4.90
2019-04-03T23:16:29.096Z,4.90
2019-04-03T23:18:33.440Z,4.90
2019-04-03T23:20:37.304Z,4.90
2019-04-03T23:22:41.114Z,4.80
2019-04-03T23:24:44.946Z,4.80
2019-04-03T23:26:48.739Z,4.90
2019-04-03T23:28:52.714Z,5.00
2019-04-03T23:30:56.647Z,5.00
2019-04-03T23:33:00.516Z,5.10
2019-04-03T23:35:06.019Z,5.10
2019-04-03T23:37:10.023Z,5.00
2019-04-03T23:39:14.451Z,4.90
2019-04-03T23:41:18.394Z,4.90
2019-04-03T23:43:22.242Z,4.90
2019-04-03T23:45:28.388Z,5.00
2019-04-03T23:47:32.640Z,4.90
2019-04-03T23:49:36.606Z,4.90
2019-04-03T23:51:40.398Z,4.80
2019-04-03T23:53:44.314Z,4.80
2019-04-03T23:55:48.147Z,4.80
2019-04-03T23:57:52.027Z,4.70
2019-04-03T23:59:55.831Z,4.80
